sensor_id;sensor_type;location;lat;lon;timestamp;pressure;altitude;pressure_sealevel;temperature;humidity
38054;BME280;23859;50.672;7.164;2023-03-04T00:02:04;101656.69;;;2.01;100.00
38054;BME280;23859;50.672;7.164;2023-03-04T00:04:30;101654.94;;;2.01;100.00
38054;BME280;23859;50.672;7.164;2023-03-04T00:06:56;101653.38;;;1.96;100.00
38054;BME280;23859;50.672;7.164;2023-03-04T00:09:22;101661.66;;;2.08;100.00
38054;BME280;23859;50.672;7.164;2023-03-04T00:11:48;101659.91;;;2.09;100.00
38054;BME280;23859;50.672;7.164;2023-03-04T00:14:14;101650.44;;;2.05;100.00
38054;BME280;23859;50.672;7.164;2023-03-04T00:16:41;101651.22;;;2.07;100.00
38054;BME280;23859;50.672;7.164;2023-03-04T00:19:08;101650.09;;;2.14;100.00
38054;BME280;23859;50.672;7.164;2023-03-04T00:21:35;101652.72;;;2.14;100.00
38054;BME280;23859;50.672;7.164;2023-03-04T00:24:01;101643.06;;;2.14;100.00
38054;BME280;23859;50.672;7.164;2023-03-04T00:26:27;101642.75;;;2.23;100.00
38054;BME280;23859;50.672;7.164;2023-03-04T00:28:53;101640.19;;;2.22;100.00
38054;BME280;23859;50.672;7.164;2023-03-04T00:31:19;101648.72;;;2.27;100.00
38054;BME280;23859;50.672;7.164;2023-03-04T00:33:45;101646.94;;;2.27;100.00
38054;BME280;23859;50.672;7.164;2023-03-04T00:36:11;101633.00;;;2.27;100.00
38054;BME280;23859;50.672;7.164;2023-03-04T00:38:38;101637.19;;;2.31;100.00
38054;BME280;23859;50.672;7.164;2023-03-04T00:41:04;101632.88;;;2.30;100.00
38054;BME280;23859;50.672;7.164;2023-03-04T00:43:30;101630.84;;;2.36;100.00
38054;BME280;23859;50.672;7.164;2023-03-04T00:45:57;101632.63;;;2.36;100.00
38054;BME280;23859;50.672;7.164;2023-03-04T00:48:23;101637.06;;;2.34;100.00
38054;BME280;23859;50.672;7.164;2023-03-04T00:50:49;101631.88;;;2.32;100.00
38054;BME280;23859;50.672;7.164;2023-03-04T00:53:18;101634.34;;;2.37;100.00
38054;BME280;23859;50.672;7.164;2023-03-04T00:55:44;101636.72;;;2.43;100.00
38054;BME280;23859;50.672;7.164;2023-03-04T00:58:10;101633.22;;;2.42;100.00
38054;BME280;23859;50.672;7.164;2023-03-04T01:00:36;101634.16;;;2.41;100.00
38054;BME280;23859;50.672;7.164;2023-03-04T01:03:02;101538.03;;;1.76;100.00
38054;BME280;23859;50.672;7.164;2023-03-04T01:05:28;101628.72;;;2.46;100.00
38054;BME280;23859;50.672;7.164;2023-03-04T01:07:54;101638.13;;;2.51;100.00
38054;BME280;23859;50.672;7.164;2023-03-04T01:10:20;101629.63;;;2.45;100.00
38054;BME280;23859;50.672;7.164;2023-03-04T01:12:46;101634.88;;;2.45;100.00
38054;BME280;23859;50.672;7.164;2023-03-04T01:15:13;101635.94;;;2.41;100.00
38054;BME280;23859;50.672;7.164;2023-03-04T01:17:40;101624.41;;;2.45;100.00
38054;BME280;23859;50.672;7.164;2023-03-04T01:20:07;101631.25;;;2.49;100.00
38054;BME280;23859;50.672;7.164;2023-03-04T01:22:33;101623.47;;;2.46;100.00
38054;BME280;23859;50.672;7.164;2023-03-04T01:25:00;101619.09;;;2.46;100.00
38054;BME280;23859;50.672;7.164;2023-03-04T01:27:26;101619.03;;;2.48;100.00
38054;BME280;23859;50.672;7.164;2023-03-04T01:29:52;101617.34;;;2.47;100.00
38054;BME280;23859;50.672;7.164;2023-03-04T01:32:18;101615.50;;;2.49;100.00
38054;BME280;23859;50.672;7.164;2023-03-04T01:34:44;101610.06;;;2.53;100.00
38054;BME280;23859;50.672;7.164;2023-03-04T01:37:11;101610.00;;;2.55;100.00
38054;BME280;23859;50.672;7.164;2023-03-04T01:39:38;101608.09;;;2.58;100.00
38054;BME280;23859;50.672;7.164;2023-03-04T01:42:04;101604.81;;;2.53;100.00
38054;BME280;23859;50.672;7.164;2023-03-04T01:44:31;101594.22;;;2.56;100.00
38054;BME280;23859;50.672;7.164;2023-03-04T01:46:57;101497.81;;;2.00;100.00
38054;BME280;23859;50.672;7.164;2023-03-04T01:49:23;101587.50;;;2.49;100.00
38054;BME280;23859;50.672;7.164;2023-03-04T01:51:52;101591.19;;;2.45;100.00
38054;BME280;23859;50.672;7.164;2023-03-04T01:54:19;101590.06;;;2.51;100.00
38054;BME280;23859;50.672;7.164;2023-03-04T01:56:47;101586.28;;;2.58;100.00
38054;BME280;23859;50.672;7.164;2023-03-04T01:59:33;101585.56;;;2.54;100.00
38054;BME280;23859;50.672;7.164;2023-03-04T02:02:00;101582.03;;;2.55;100.00
38054;BME280;23859;50.672;7.164;2023-03-04T02:04:30;101593.34;;;2.56;100.00
38054;BME280;23859;50.672;7.164;2023-03-04T02:06:57;101591.63;;;2.55;100.00
38054;BME280;23859;50.672;7.164;2023-03-04T02:09:24;101582.19;;;2.51;100.00
38054;BME280;23859;50.672;7.164;2023-03-04T02:11:51;101583.84;;;2.53;100.00
38054;BME280;23859;50.672;7.164;2023-03-04T02:14:17;101577.75;;;2.53;100.00
38054;BME280;23859;50.672;7.164;2023-03-04T02:16:44;101574.34;;;2.51;100.00
38054;BME280;23859;50.672;7.164;2023-03-04T02:22:04;101575.88;;;2.56;100.00
38054;BME280;23859;50.672;7.164;2023-03-04T02:24:52;101579.34;;;2.57;100.00
38054;BME280;23859;50.672;7.164;2023-03-04T02:27:19;101572.19;;;2.60;100.00
38054;BME280;23859;50.672;7.164;2023-03-04T02:29:45;101575.00;;;2.56;100.00
38054;BME280;23859;50.672;7.164;2023-03-04T02:32:13;101568.84;;;2.57;100.00
38054;BME280;23859;50.672;7.164;2023-03-04T02:34:45;101573.19;;;2.58;100.00
38054;BME280;23859;50.672;7.164;2023-03-04T02:37:12;101569.75;;;2.56;100.00
38054;BME280;23859;50.672;7.164;2023-03-04T02:39:41;101573.28;;;2.55;100.00
38054;BME280;23859;50.672;7.164;2023-03-04T02:42:08;101569.75;;;2.56;100.00
38054;BME280;23859;50.672;7.164;2023-03-04T02:44:37;101571.31;;;2.60;100.00
38054;BME280;23859;50.672;7.164;2023-03-04T02:47:06;101565.16;;;2.61;100.00
38054;BME280;23859;50.672;7.164;2023-03-04T02:49:33;101450.81;;;1.96;100.00
38054;BME280;23859;50.672;7.164;2023-03-04T02:52:10;101559.25;;;2.56;100.00
38054;BME280;23859;50.672;7.164;2023-03-04T02:54:38;101555.00;;;2.53;100.00
38054;BME280;23859;50.672;7.164;2023-03-04T02:57:07;101562.78;;;2.55;100.00
38054;BME280;23859;50.672;7.164;2023-03-04T02:59:35;101560.31;;;2.52;100.00
38054;BME280;23859;50.672;7.164;2023-03-04T03:02:01;101558.50;;;2.54;100.00
38054;BME280;23859;50.672;7.164;2023-03-04T03:04:28;101554.94;;;2.55;100.00
38054;BME280;23859;50.672;7.164;2023-03-04T03:06:54;101553.19;;;2.55;100.00
38054;BME280;23859;50.672;7.164;2023-03-04T03:09:20;101549.56;;;2.58;100.00
38054;BME280;23859;50.672;7.164;2023-03-04T03:11:46;101550.47;;;2.57;100.00
38054;BME280;23859;50.672;7.164;2023-03-04T03:14:12;101547.72;;;2.60;100.00
38054;BME280;23859;50.672;7.164;2023-03-04T03:16:38;101546.88;;;2.59;100.00
38054;BME280;23859;50.672;7.164;2023-03-04T03:19:04;101540.78;;;2.59;100.00
38054;BME280;23859;50.672;7.164;2023-03-04T03:21:31;101538.03;;;2.81;100.00
38054;BME280;23859;50.672;7.164;2023-03-04T03:23:57;101535.16;;;2.67;100.00
38054;BME280;23859;50.672;7.164;2023-03-04T03:26:23;101536.97;;;2.65;100.00
38054;BME280;23859;50.672;7.164;2023-03-04T03:28:49;101531.56;;;2.70;100.00
38054;BME280;23859;50.672;7.164;2023-03-04T03:31:15;101534.25;;;2.68;100.00
38054;BME280;23859;50.672;7.164;2023-03-04T03:33:41;101529.91;;;2.67;100.00
38054;BME280;23859;50.672;7.164;2023-03-04T03:36:07;101530.75;;;2.68;100.00
38054;BME280;23859;50.672;7.164;2023-03-04T03:38:33;101528.78;;;2.73;100.00
38054;BME280;23859;50.672;7.164;2023-03-04T03:41:00;101525.88;;;2.80;100.00
38054;BME280;23859;50.672;7.164;2023-03-04T03:43:26;101531.94;;;2.81;100.00
38054;BME280;23859;50.672;7.164;2023-03-04T03:45:52;101530.56;;;2.72;100.00
38054;BME280;23859;50.672;7.164;2023-03-04T03:48:18;101534.16;;;2.70;100.00
38054;BME280;23859;50.672;7.164;2023-03-04T03:50:44;101527.84;;;2.75;100.00
38054;BME280;23859;50.672;7.164;2023-03-04T03:53:10;101518.19;;;2.76;100.00
38054;BME280;23859;50.672;7.164;2023-03-04T03:55:36;101531.38;;;2.94;100.00
38054;BME280;23859;50.672;7.164;2023-03-04T03:58:04;101519.63;;;2.83;100.00
38054;BME280;23859;50.672;7.164;2023-03-04T04:00:30;101515.47;;;2.77;100.00
38054;BME280;23859;50.672;7.164;2023-03-04T04:02:57;101518.09;;;2.77;100.00
38054;BME280;23859;50.672;7.164;2023-03-04T04:05:23;101536.06;;;2.86;100.00
38054;BME280;23859;50.672;7.164;2023-03-04T04:07:49;101517.84;;;2.83;100.00
38054;BME280;23859;50.672;7.164;2023-03-04T04:10:15;101510.13;;;2.80;100.00
38054;BME280;23859;50.672;7.164;2023-03-04T04:12:41;101513.97;;;2.92;100.00
38054;BME280;23859;50.672;7.164;2023-03-04T04:15:10;101515.81;;;2.90;100.00
38054;BME280;23859;50.672;7.164;2023-03-04T04:17:36;101520.31;;;2.86;100.00
38054;BME280;23859;50.672;7.164;2023-03-04T04:20:03;101518.00;;;2.80;100.00
38054;BME280;23859;50.672;7.164;2023-03-04T04:22:30;101517.19;;;2.78;100.00
38054;BME280;23859;50.672;7.164;2023-03-04T04:24:56;101516.03;;;2.85;100.00
38054;BME280;23859;50.672;7.164;2023-03-04T04:27:22;101516.69;;;2.90;100.00
38054;BME280;23859;50.672;7.164;2023-03-04T04:29:48;101507.94;;;2.90;100.00
38054;BME280;23859;50.672;7.164;2023-03-04T04:32:14;101512.16;;;2.94;100.00
38054;BME280;23859;50.672;7.164;2023-03-04T04:34:40;101507.59;;;2.97;100.00
38054;BME280;23859;50.672;7.164;2023-03-04T04:37:06;101508.47;;;2.98;100.00
38054;BME280;23859;50.672;7.164;2023-03-04T04:39:32;101499.69;;;2.99;100.00
38054;BME280;23859;50.672;7.164;2023-03-04T04:41:58;101496.91;;;3.02;100.00
38054;BME280;23859;50.672;7.164;2023-03-04T04:44:24;101502.03;;;3.05;100.00
38054;BME280;23859;50.672;7.164;2023-03-04T04:46:50;101507.34;;;3.03;100.00
38054;BME280;23859;50.672;7.164;2023-03-04T04:49:16;101506.63;;;3.00;100.00
38054;BME280;23859;50.672;7.164;2023-03-04T04:51:42;101502.97;;;3.04;100.00
38054;BME280;23859;50.672;7.164;2023-03-04T04:54:09;101501.25;;;3.03;100.00
38054;BME280;23859;50.672;7.164;2023-03-04T04:56:35;101496.84;;;3.03;100.00
38054;BME280;23859;50.672;7.164;2023-03-04T04:59:03;101503.88;;;3.03;100.00
38054;BME280;23859;50.672;7.164;2023-03-04T05:01:30;101506.56;;;3.01;100.00
38054;BME280;23859;50.672;7.164;2023-03-04T05:03:56;101505.66;;;3.02;100.00
38054;BME280;23859;50.672;7.164;2023-03-04T05:06:23;101507.59;;;2.97;100.00
38054;BME280;23859;50.672;7.164;2023-03-04T05:08:52;101474.16;;;2.82;100.00
38054;BME280;23859;50.672;7.164;2023-03-04T05:11:19;101504.53;;;3.08;100.00
38054;BME280;23859;50.672;7.164;2023-03-04T05:13:47;101510.75;;;3.05;100.00
38054;BME280;23859;50.672;7.164;2023-03-04T05:16:13;101510.69;;;3.07;100.00
38054;BME280;23859;50.672;7.164;2023-03-04T05:18:40;101508.44;;;3.18;100.00
38054;BME280;23859;50.672;7.164;2023-03-04T05:21:06;101512.06;;;3.15;100.00
38054;BME280;23859;50.672;7.164;2023-03-04T05:23:35;101513.22;;;3.08;100.00
38054;BME280;23859;50.672;7.164;2023-03-04T05:26:02;101508.06;;;3.07;100.00
38054;BME280;23859;50.672;7.164;2023-03-04T05:28:29;101509.78;;;3.08;100.00
38054;BME280;23859;50.672;7.164;2023-03-04T05:30:55;101501.56;;;3.15;100.00
38054;BME280;23859;50.672;7.164;2023-03-04T05:33:21;101498.00;;;3.16;100.00
38054;BME280;23859;50.672;7.164;2023-03-04T05:35:48;101500.72;;;3.15;100.00
38054;BME280;23859;50.672;7.164;2023-03-04T05:38:16;101507.63;;;3.16;100.00
38054;BME280;23859;50.672;7.164;2023-03-04T05:40:43;101508.38;;;3.19;100.00
38054;BME280;23859;50.672;7.164;2023-03-04T05:43:10;101503.91;;;3.21;100.00
38054;BME280;23859;50.672;7.164;2023-03-04T05:45:37;101504.81;;;3.20;100.00
38054;BME280;23859;50.672;7.164;2023-03-04T05:48:04;101501.13;;;3.24;100.00
38054;BME280;23859;50.672;7.164;2023-03-04T05:50:31;101507.34;;;3.23;100.00
38054;BME280;23859;50.672;7.164;2023-03-04T05:52:57;101507.44;;;3.20;100.00
38054;BME280;23859;50.672;7.164;2023-03-04T05:55:24;101507.19;;;3.26;100.00
38054;BME280;23859;50.672;7.164;2023-03-04T05:57:50;101518.47;;;3.28;100.00
38054;BME280;23859;50.672;7.164;2023-03-04T06:00:16;101513.06;;;3.31;100.00
38054;BME280;23859;50.672;7.164;2023-03-04T06:02:43;101512.97;;;3.34;100.00
38054;BME280;23859;50.672;7.164;2023-03-04T06:05:10;101512.75;;;3.57;100.00
38054;BME280;23859;50.672;7.164;2023-03-04T06:07:36;101517.00;;;3.41;100.00
38054;BME280;23859;50.672;7.164;2023-03-04T06:10:03;101518.06;;;3.37;100.00
38054;BME280;23859;50.672;7.164;2023-03-04T06:12:30;101517.97;;;3.38;100.00
38054;BME280;23859;50.672;7.164;2023-03-04T06:14:56;101521.59;;;3.36;100.00
38054;BME280;23859;50.672;7.164;2023-03-04T06:17:22;101537.25;;;3.39;100.00
38054;BME280;23859;50.672;7.164;2023-03-04T06:19:48;101524.78;;;3.42;100.00
38054;BME280;23859;50.672;7.164;2023-03-04T06:22:14;101528.94;;;3.66;100.00
38054;BME280;23859;50.672;7.164;2023-03-04T06:24:40;101531.84;;;3.79;100.00
38054;BME280;23859;50.672;7.164;2023-03-04T06:27:06;101528.75;;;3.71;100.00
38054;BME280;23859;50.672;7.164;2023-03-04T06:29:32;101529.88;;;3.84;100.00
38054;BME280;23859;50.672;7.164;2023-03-04T06:31:58;101529.16;;;3.80;100.00
38054;BME280;23859;50.672;7.164;2023-03-04T06:34:24;101530.47;;;3.72;100.00
38054;BME280;23859;50.672;7.164;2023-03-04T06:36:51;101524.88;;;3.59;100.00
38054;BME280;23859;50.672;7.164;2023-03-04T06:39:17;101434.47;;;2.90;100.00
38054;BME280;23859;50.672;7.164;2023-03-04T06:41:43;101534.97;;;3.50;100.00
38054;BME280;23859;50.672;7.164;2023-03-04T06:44:09;101541.78;;;3.54;100.00
38054;BME280;23859;50.672;7.164;2023-03-04T06:46:35;101533.75;;;3.57;100.00
38054;BME280;23859;50.672;7.164;2023-03-04T06:49:01;101531.94;;;3.59;100.00
38054;BME280;23859;50.672;7.164;2023-03-04T06:51:28;101536.00;;;3.66;100.00
38054;BME280;23859;50.672;7.164;2023-03-04T06:53:55;101535.72;;;3.72;100.00
38054;BME280;23859;50.672;7.164;2023-03-04T06:56:21;101542.81;;;3.70;100.00
38054;BME280;23859;50.672;7.164;2023-03-04T06:58:47;101540.03;;;3.73;100.00
38054;BME280;23859;50.672;7.164;2023-03-04T07:01:16;101546.84;;;3.77;100.00
38054;BME280;23859;50.672;7.164;2023-03-04T07:03:43;101549.25;;;3.81;100.00
38054;BME280;23859;50.672;7.164;2023-03-04T07:06:14;101547.34;;;3.85;100.00
38054;BME280;23859;50.672;7.164;2023-03-04T07:08:41;101546.91;;;3.93;100.00
38054;BME280;23859;50.672;7.164;2023-03-04T07:11:07;101549.03;;;4.04;100.00
38054;BME280;23859;50.672;7.164;2023-03-04T07:13:34;101548.56;;;4.14;100.00
38054;BME280;23859;50.672;7.164;2023-03-04T07:16:06;101555.66;;;4.12;100.00
38054;BME280;23859;50.672;7.164;2023-03-04T07:18:33;101554.13;;;4.07;100.00
38054;BME280;23859;50.672;7.164;2023-03-04T07:20:59;101552.38;;;4.07;100.00
38054;BME280;23859;50.672;7.164;2023-03-04T07:23:25;101554.00;;;4.10;100.00
38054;BME280;23859;50.672;7.164;2023-03-04T07:25:52;101560.00;;;4.13;100.00
38054;BME280;23859;50.672;7.164;2023-03-04T07:28:18;101554.56;;;4.16;100.00
38054;BME280;23859;50.672;7.164;2023-03-04T07:30:44;101564.63;;;4.25;100.00
38054;BME280;23859;50.672;7.164;2023-03-04T07:33:11;101557.53;;;4.27;100.00
38054;BME280;23859;50.672;7.164;2023-03-04T07:35:38;101555.13;;;4.41;100.00
38054;BME280;23859;50.672;7.164;2023-03-04T07:38:04;101557.97;;;4.37;100.00
38054;BME280;23859;50.672;7.164;2023-03-04T07:40:30;101557.41;;;4.47;100.00
38054;BME280;23859;50.672;7.164;2023-03-04T07:42:56;101564.59;;;4.62;100.00
38054;BME280;23859;50.672;7.164;2023-03-04T07:45:23;101561.16;;;4.60;100.00
38054;BME280;23859;50.672;7.164;2023-03-04T07:47:49;101561.19;;;4.94;97.82
38054;BME280;23859;50.672;7.164;2023-03-04T07:50:16;101565.50;;;5.12;95.02
38054;BME280;23859;50.672;7.164;2023-03-04T07:52:45;101559.25;;;5.14;95.67
38054;BME280;23859;50.672;7.164;2023-03-04T07:55:13;101557.47;;;5.31;93.52
38054;BME280;23859;50.672;7.164;2023-03-04T07:57:41;101564.97;;;5.39;93.08
38054;BME280;23859;50.672;7.164;2023-03-04T08:00:08;101567.34;;;5.43;93.04
38054;BME280;23859;50.672;7.164;2023-03-04T08:02:34;101561.28;;;5.58;91.20
38054;BME280;23859;50.672;7.164;2023-03-04T08:05:00;101559.38;;;5.60;90.58
38054;BME280;23859;50.672;7.164;2023-03-04T08:07:26;101569.78;;;5.63;91.17
38054;BME280;23859;50.672;7.164;2023-03-04T08:09:52;101573.84;;;5.53;91.55
38054;BME280;23859;50.672;7.164;2023-03-04T08:12:18;101569.28;;;5.72;89.21
38054;BME280;23859;50.672;7.164;2023-03-04T08:14:44;101562.09;;;5.76;89.72
38054;BME280;23859;50.672;7.164;2023-03-04T08:17:10;101457.06;;;5.21;89.15
38054;BME280;23859;50.672;7.164;2023-03-04T08:19:39;101568.34;;;5.90;88.59
38054;BME280;23859;50.672;7.164;2023-03-04T08:22:06;101566.44;;;5.92;89.30
38054;BME280;23859;50.672;7.164;2023-03-04T08:24:32;101570.56;;;5.97;88.62
38054;BME280;23859;50.672;7.164;2023-03-04T08:26:58;101573.19;;;5.97;88.70
38054;BME280;23859;50.672;7.164;2023-03-04T08:29:24;101575.06;;;6.11;87.59
38054;BME280;23859;50.672;7.164;2023-03-04T08:31:52;101578.13;;;6.19;87.48
38054;BME280;23859;50.672;7.164;2023-03-04T08:34:21;101571.56;;;6.10;87.53
38054;BME280;23859;50.672;7.164;2023-03-04T08:36:48;101577.19;;;6.20;87.07
38054;BME280;23859;50.672;7.164;2023-03-04T08:39:16;101570.56;;;6.28;85.81
38054;BME280;23859;50.672;7.164;2023-03-04T08:41:43;101576.88;;;6.26;86.24
38054;BME280;23859;50.672;7.164;2023-03-04T08:44:09;101578.97;;;6.35;85.50
38054;BME280;23859;50.672;7.164;2023-03-04T08:46:37;101575.16;;;6.25;86.04
38054;BME280;23859;50.672;7.164;2023-03-04T08:49:04;101575.59;;;6.33;86.39
38054;BME280;23859;50.672;7.164;2023-03-04T08:51:30;101570.38;;;6.47;84.31
38054;BME280;23859;50.672;7.164;2023-03-04T08:53:57;101472.97;;;5.82;84.68
38054;BME280;23859;50.672;7.164;2023-03-04T08:56:23;101581.13;;;6.44;85.08
38054;BME280;23859;50.672;7.164;2023-03-04T08:58:49;101571.25;;;6.47;84.55
38054;BME280;23859;50.672;7.164;2023-03-04T09:01:15;101580.78;;;6.50;84.61
38054;BME280;23859;50.672;7.164;2023-03-04T09:03:42;101572.75;;;6.51;84.07
38054;BME280;23859;50.672;7.164;2023-03-04T09:06:11;101580.06;;;6.61;83.49
38054;BME280;23859;50.672;7.164;2023-03-04T09:08:38;101572.13;;;6.61;84.31
38054;BME280;23859;50.672;7.164;2023-03-04T09:11:04;101569.44;;;6.63;83.27
38054;BME280;23859;50.672;7.164;2023-03-04T09:13:31;101566.84;;;6.61;83.00
38054;BME280;23859;50.672;7.164;2023-03-04T09:15:58;101577.16;;;6.66;82.41
38054;BME280;23859;50.672;7.164;2023-03-04T09:18:25;101577.66;;;6.72;81.83
38054;BME280;23859;50.672;7.164;2023-03-04T09:20:52;101576.38;;;6.79;82.67
38054;BME280;23859;50.672;7.164;2023-03-04T09:23:18;101571.88;;;6.81;81.97
38054;BME280;23859;50.672;7.164;2023-03-04T09:25:45;101574.66;;;6.78;82.10
38054;BME280;23859;50.672;7.164;2023-03-04T09:28:12;101569.84;;;6.71;82.99
38054;BME280;23859;50.672;7.164;2023-03-04T09:30:39;101572.69;;;6.82;82.00
38054;BME280;23859;50.672;7.164;2023-03-04T09:33:05;101574.56;;;6.80;82.51
38054;BME280;23859;50.672;7.164;2023-03-04T09:35:31;101569.81;;;6.86;82.19
38054;BME280;23859;50.672;7.164;2023-03-04T09:37:58;101564.22;;;6.91;81.98
38054;BME280;23859;50.672;7.164;2023-03-04T09:40:31;101572.34;;;6.88;82.44
38054;BME280;23859;50.672;7.164;2023-03-04T09:43:03;101569.28;;;6.80;83.46
38054;BME280;23859;50.672;7.164;2023-03-04T09:45:38;101573.38;;;6.85;83.03
38054;BME280;23859;50.672;7.164;2023-03-04T09:48:06;101572.22;;;6.75;84.02
38054;BME280;23859;50.672;7.164;2023-03-04T09:50:39;101573.88;;;6.92;82.35
38054;BME280;23859;50.672;7.164;2023-03-04T09:55:39;101579.47;;;7.01;82.24
38054;BME280;23859;50.672;7.164;2023-03-04T10:00:57;101562.69;;;7.16;81.59
38054;BME280;23859;50.672;7.164;2023-03-04T10:03:42;101565.53;;;7.13;81.38
38054;BME280;23859;50.672;7.164;2023-03-04T10:06:16;101566.84;;;7.20;81.07
38054;BME280;23859;50.672;7.164;2023-03-04T10:11:40;101558.66;;;7.25;81.83
38054;BME280;23859;50.672;7.164;2023-03-04T10:16:48;101558.59;;;7.54;80.48
38054;BME280;23859;50.672;7.164;2023-03-04T10:19:43;101548.59;;;7.73;79.27
38054;BME280;23859;50.672;7.164;2023-03-04T10:22:32;101547.50;;;8.31;77.63
38054;BME280;23859;50.672;7.164;2023-03-04T10:25:21;101541.38;;;9.20;75.41
38054;BME280;23859;50.672;7.164;2023-03-04T10:27:56;101542.78;;;10.00;70.27
38054;BME280;23859;50.672;7.164;2023-03-04T10:30:48;101453.78;;;9.94;68.85
38054;BME280;23859;50.672;7.164;2023-03-04T10:33:22;101527.34;;;12.73;62.66
38054;BME280;23859;50.672;7.164;2023-03-04T10:35:59;101519.59;;;14.50;55.56
38054;BME280;23859;50.672;7.164;2023-03-04T10:38:25;101525.22;;;14.38;53.32
38054;BME280;23859;50.672;7.164;2023-03-04T10:40:54;101527.06;;;14.37;53.33
38054;BME280;23859;50.672;7.164;2023-03-04T10:43:22;101524.72;;;13.14;55.62
38054;BME280;23859;50.672;7.164;2023-03-04T10:45:54;101529.31;;;12.60;57.16
38054;BME280;23859;50.672;7.164;2023-03-04T10:48:27;101530.00;;;11.32;61.44
38054;BME280;23859;50.672;7.164;2023-03-04T10:50:58;101535.59;;;10.72;63.71
38054;BME280;23859;50.672;7.164;2023-03-04T10:53:40;101537.88;;;10.30;65.46
38054;BME280;23859;50.672;7.164;2023-03-04T10:56:29;101541.50;;;9.68;68.21
38054;BME280;23859;50.672;7.164;2023-03-04T10:59:29;101535.69;;;9.51;69.78
38054;BME280;23859;50.672;7.164;2023-03-04T11:02:15;101532.47;;;9.71;69.75
38054;BME280;23859;50.672;7.164;2023-03-04T11:04:41;101529.88;;;9.94;68.18
38054;BME280;23859;50.672;7.164;2023-03-04T11:07:09;101521.34;;;10.26;68.25
38054;BME280;23859;50.672;7.164;2023-03-04T11:09:36;101515.75;;;10.42;66.37
38054;BME280;23859;50.672;7.164;2023-03-04T11:12:10;101517.81;;;10.62;66.50
38054;BME280;23859;50.672;7.164;2023-03-04T11:14:46;101512.53;;;10.49;66.59
38054;BME280;23859;50.672;7.164;2023-03-04T11:20:13;101515.16;;;10.26;66.78
38054;BME280;23859;50.672;7.164;2023-03-04T11:22:42;101509.41;;;10.32;67.08
38054;BME280;23859;50.672;7.164;2023-03-04T11:25:31;101509.59;;;10.64;66.00
38054;BME280;23859;50.672;7.164;2023-03-04T11:28:14;101423.63;;;10.19;65.65
38054;BME280;23859;50.672;7.164;2023-03-04T11:30:52;101513.38;;;10.50;65.73
38054;BME280;23859;50.672;7.164;2023-03-04T11:33:55;101503.59;;;10.27;66.59
38054;BME280;23859;50.672;7.164;2023-03-04T11:36:44;101510.50;;;9.81;69.03
38054;BME280;23859;50.672;7.164;2023-03-04T11:39:25;101513.31;;;9.42;70.92
38054;BME280;23859;50.672;7.164;2023-03-04T11:42:00;101512.03;;;9.11;73.19
38054;BME280;23859;50.672;7.164;2023-03-04T11:44:28;101509.59;;;9.32;73.26
38054;BME280;23859;50.672;7.164;2023-03-04T11:50:30;101506.41;;;9.52;74.06
38054;BME280;23859;50.672;7.164;2023-03-04T11:53:36;101496.72;;;9.51;73.30
38054;BME280;23859;50.672;7.164;2023-03-04T11:56:14;101494.84;;;10.61;70.11
38054;BME280;23859;50.672;7.164;2023-03-04T12:07:52;101488.47;;;10.04;70.59
38054;BME280;23859;50.672;7.164;2023-03-04T12:10:08;101477.22;;;9.88;71.70
38054;BME280;23859;50.672;7.164;2023-03-04T12:15:43;101480.38;;;9.57;72.74
38054;BME280;23859;50.672;7.164;2023-03-04T12:18:27;101473.31;;;9.33;73.83
38054;BME280;23859;50.672;7.164;2023-03-04T12:34:51;101452.47;;;10.47;69.28
38054;BME280;23859;50.672;7.164;2023-03-04T12:37:29;101446.78;;;10.40;69.87
38054;BME280;23859;50.672;7.164;2023-03-04T12:45:38;101437.38;;;10.13;70.36
38054;BME280;23859;50.672;7.164;2023-03-04T12:54:02;101433.97;;;9.75;72.16
38054;BME280;23859;50.672;7.164;2023-03-04T13:00:05;101417.50;;;9.34;73.55
38054;BME280;23859;50.672;7.164;2023-03-04T13:10:52;101408.25;;;9.40;75.12
38054;BME280;23859;50.672;7.164;2023-03-04T13:13:36;101405.38;;;9.43;73.11
38054;BME280;23859;50.672;7.164;2023-03-04T13:18:44;101398.63;;;9.27;73.86
38054;BME280;23859;50.672;7.164;2023-03-04T13:23:39;101399.09;;;9.08;74.39
38054;BME280;23859;50.672;7.164;2023-03-04T13:32:09;101389.34;;;9.44;73.86
38054;BME280;23859;50.672;7.164;2023-03-04T13:34:46;101390.56;;;9.28;74.23
38054;BME280;23859;50.672;7.164;2023-03-04T13:37:29;101402.25;;;9.26;73.93
38054;BME280;23859;50.672;7.164;2023-03-04T13:42:48;101385.06;;;9.06;75.27
38054;BME280;23859;50.672;7.164;2023-03-04T13:47:56;101386.03;;;8.93;75.72
38054;BME280;23859;50.672;7.164;2023-03-04T13:50:35;101388.03;;;9.02;76.30
38054;BME280;23859;50.672;7.164;2023-03-04T13:53:27;101382.75;;;8.89;76.91
38054;BME280;23859;50.672;7.164;2023-03-04T13:56:31;101373.84;;;8.78;77.52
38054;BME280;23859;50.672;7.164;2023-03-04T14:01:57;101367.16;;;9.10;76.35
38054;BME280;23859;50.672;7.164;2023-03-04T14:04:39;101364.88;;;9.28;75.14
38054;BME280;23859;50.672;7.164;2023-03-04T14:07:25;101359.97;;;9.47;73.50
38054;BME280;23859;50.672;7.164;2023-03-04T14:09:58;101361.34;;;9.40;74.39
38054;BME280;23859;50.672;7.164;2023-03-04T14:12:26;101362.31;;;9.39;74.72
38054;BME280;23859;50.672;7.164;2023-03-04T14:14:59;101351.44;;;9.19;74.62
38054;BME280;23859;50.672;7.164;2023-03-04T14:17:36;101355.34;;;9.26;73.93
38054;BME280;23859;50.672;7.164;2023-03-04T14:20:04;101344.56;;;9.17;74.68
38054;BME280;23859;50.672;7.164;2023-03-04T14:22:37;101342.78;;;9.05;76.11
38054;BME280;23859;50.672;7.164;2023-03-04T14:27:38;101341.38;;;8.99;76.64
38054;BME280;23859;50.672;7.164;2023-03-04T14:30:12;101334.06;;;9.03;75.62
38054;BME280;23859;50.672;7.164;2023-03-04T14:32:44;101334.94;;;8.78;76.88
38054;BME280;23859;50.672;7.164;2023-03-04T14:35:25;101328.91;;;8.89;76.97